Time;durP1;ratioP1;P1;durP2;ratioP2;P2;SDS_P1;SDS_P2;PMS_P1;PMS_P2;Temp;Humidity;BMP_temperature;BMP_pressure;BME280_temperature;BME280_humidity;BME280_pressure;Samples;Min_cycle;Max_cycle;Signal;HPM_P1;HPM_P2
2022/04/27 00:02:10;;;;;;;13.57;9.85;;;4.50;99.90;;;;;;4979477;28;91667;-36
2022/04/27 00:04:36;;;;;;;10.20;8.88;;;4.40;99.90;;;;;;4979417;28;90568;-34
2022/04/27 00:07:04;;;;;;;11.30;9.52;;;4.40;99.90;;;;;;4979613;28;88387;-38
2022/04/27 00:09:30;;;;;;;14.45;9.57;;;4.30;99.90;;;;;;4979319;28;90354;-34
2022/04/27 00:11:59;;;;;;;11.93;8.75;;;4.30;99.90;;;;;;4979260;28;89951;-34
2022/04/27 00:14:25;;;;;;;;;;;4.30;99.90;;;;;;4980035;28;89613;-39
2022/04/27 00:16:51;;;;;;;16.00;9.02;;;4.30;99.90;;;;;;4981566;28;88616;-35
2022/04/27 00:19:16;;;;;;;14.85;8.90;;;4.30;99.90;;;;;;4979525;28;89698;-34
2022/04/27 00:21:42;;;;;;;11.68;8.77;;;4.20;99.90;;;;;;4979147;28;90038;-37
2022/04/27 00:24:08;;;;;;;15.73;8.45;;;4.20;99.90;;;;;;4979631;28;90797;-35
2022/04/27 00:26:33;;;;;;;15.57;8.25;;;4.10;99.90;;;;;;4979156;28;88774;-34
2022/04/27 00:28:59;;;;;;;9.77;8.82;;;3.90;99.90;;;;;;4980157;28;90420;-33
2022/04/27 00:31:25;;;;;;;13.85;9.63;;;3.80;99.90;;;;;;4979170;28;91048;-33
2022/04/27 00:33:50;;;;;;;9.93;8.65;;;3.80;99.90;;;;;;5011231;22;89601;-36
2022/04/27 00:36:16;;;;;;;13.15;9.38;;;3.80;99.90;;;;;;4958657;28;89500;-33
2022/04/27 00:38:42;;;;;;;12.13;9.35;;;3.70;99.90;;;;;;4959815;28;90285;-33
2022/04/27 00:41:07;;;;;;;10.13;9.13;;;3.80;99.90;;;;;;4959586;28;89865;-34
2022/04/27 00:43:37;;;;;;;11.02;8.52;;;3.70;99.90;;;;;;4959970;28;89641;-38
2022/04/27 00:46:03;;;;;;;11.20;8.93;;;3.70;99.90;;;;;;4959454;28;89766;-39
2022/04/27 00:48:29;;;;;;;12.73;9.90;;;3.70;99.90;;;;;;4959962;28;90279;-34
2022/04/27 00:50:56;;;;;;;11.68;9.85;;;3.80;99.90;;;;;;4958441;28;90491;-38
2022/04/27 00:53:21;;;;;;;13.30;9.48;;;3.80;99.90;;;;;;4959675;28;90485;-36
2022/04/27 00:55:47;;;;;;;13.82;9.98;;;3.80;99.90;;;;;;4959239;28;89580;-33
2022/04/27 00:58:14;;;;;;;15.70;9.32;;;3.80;99.90;;;;;;4958228;28;90278;-36
2022/04/27 01:00:40;;;;;;;9.80;8.75;;;3.70;99.90;;;;;;4959305;28;89664;-35
2022/04/27 01:03:06;;;;;;;13.20;10.13;;;3.80;99.90;;;;;;4961742;28;89856;-37
2022/04/27 01:05:32;;;;;;;10.73;8.25;;;3.70;99.90;;;;;;4962355;28;89356;-36
2022/04/27 01:08:00;;;;;;;11.88;9.20;;;3.60;99.90;;;;;;4962874;28;89242;-33
2022/04/27 01:10:29;;;;;;;14.18;9.45;;;3.60;99.90;;;;;;4962835;28;89969;-35
2022/04/27 01:12:56;;;;;;;12.52;9.27;;;3.60;99.90;;;;;;4962351;28;90463;-34
2022/04/27 01:15:32;;;;;;;12.70;9.67;;;3.60;99.90;;;;;;4962777;28;90685;-35
2022/04/27 01:17:59;;;;;;;11.60;8.07;;;3.50;99.90;;;;;;4962587;28;90038;-35
2022/04/27 01:20:30;;;;;;;16.33;9.55;;;3.50;99.90;;;;;;4962943;28;89569;-32
2022/04/27 01:22:55;;;;;;;9.38;8.40;;;3.40;99.90;;;;;;4962750;28;89573;-37
2022/04/27 01:25:21;;;;;;;9.52;8.60;;;3.30;99.90;;;;;;4962578;28;88803;-37
2022/04/27 01:27:46;;;;;;;11.27;9.27;;;3.30;99.90;;;;;;4962637;28;90265;-35
2022/04/27 01:30:12;;;;;;;13.50;8.45;;;3.20;99.90;;;;;;4962791;28;90503;-35
2022/04/27 01:32:38;;;;;;;14.15;10.25;;;3.10;99.90;;;;;;4961943;28;93492;-36
2022/04/27 01:35:03;;;;;;;11.40;9.30;;;3.10;99.90;;;;;;4962161;28;88130;-35
2022/04/27 01:40:13;;;;;;;11.32;8.68;;;3.10;99.90;;;;;;4962512;28;90943;-35
2022/04/27 01:42:39;;;;;;;9.80;8.35;;;3.20;99.90;;;;;;4961781;28;90498;-35
2022/04/27 01:45:06;;;;;;;13.73;9.98;;;3.20;99.90;;;;;;4962287;28;87638;-35
2022/04/27 01:47:31;;;;;;;9.80;8.52;;;3.30;99.90;;;;;;4961795;28;91626;-34
2022/04/27 01:49:57;;;;;;;11.02;8.52;;;3.30;99.90;;;;;;4961850;28;89759;-35
2022/04/27 01:55:07;;;;;;;15.05;9.65;;;3.40;99.90;;;;;;4961706;28;88728;-34
2022/04/27 01:57:32;;;;;;;17.10;10.60;;;3.40;99.90;;;;;;4962291;28;89833;-34
2022/04/27 01:59:58;;;;;;;13.55;9.32;;;3.40;99.90;;;;;;4960956;28;91431;-35
2022/04/27 02:02:24;;;;;;;17.65;9.02;;;3.20;99.90;;;;;;4962224;28;89539;-34
2022/04/27 02:04:49;;;;;;;10.90;8.77;;;3.20;99.90;;;;;;4961999;28;89004;-33
2022/04/27 02:07:15;;;;;;;11.52;9.45;;;3.10;99.90;;;;;;4961425;28;93234;-33
2022/04/27 02:09:40;;;;;;;16.52;10.02;;;3.10;99.90;;;;;;4962358;28;89978;-36
2022/04/27 02:12:06;;;;;;;14.52;8.20;;;3.10;99.90;;;;;;4961231;28;89332;-36
2022/04/27 02:14:32;;;;;;;16.08;9.70;;;3.20;99.90;;;;;;4961367;28;90214;-35
2022/04/27 02:16:57;;;;;;;12.73;9.75;;;3.20;99.90;;;;;;4961762;28;90262;-34
2022/04/27 02:19:23;;;;;;;16.80;10.57;;;3.30;99.90;;;;;;4961664;28;89326;-34
2022/04/27 02:21:49;;;;;;;16.48;10.95;;;3.30;99.90;;;;;;4960829;28;89635;-35
2022/04/27 02:24:15;;;;;;;9.88;8.90;;;3.30;99.90;;;;;;4960627;28;89675;-33
2022/04/27 02:26:42;;;;;;;12.80;11.55;;;3.40;99.90;;;;;;4961558;28;90213;-34
2022/04/27 02:29:08;;;;;;;14.73;11.40;;;3.30;99.90;;;;;;4960263;28;91364;-33
2022/04/27 02:31:34;;;;;;;16.20;12.43;;;3.40;99.90;;;;;;4959770;28;90533;-34
2022/04/27 02:34:00;;;;;;;12.60;11.25;;;3.40;99.90;;;;;;4960992;28;89450;-33
2022/04/27 02:36:26;;;;;;;12.45;11.15;;;3.50;99.90;;;;;;4960449;28;90615;-36
2022/04/27 02:38:51;;;;;;;12.55;10.95;;;3.50;99.90;;;;;;4960638;28;89469;-38
2022/04/27 02:41:17;;;;;;;18.73;12.07;;;3.40;99.90;;;;;;4960943;28;89552;-34
2022/04/27 02:43:43;;;;;;;11.73;10.10;;;3.30;99.90;;;;;;4960214;28;89732;-35
2022/04/27 02:46:08;;;;;;;14.35;11.40;;;3.30;99.90;;;;;;4961041;28;90311;-37
2022/04/27 02:48:34;;;;;;;13.98;11.43;;;3.10;99.90;;;;;;4959924;28;90046;-35
2022/04/27 02:53:43;;;;;;;17.38;11.77;;;3.20;99.90;;;;;;4960061;28;89316;-32
2022/04/27 02:56:10;;;;;;;22.50;12.60;;;3.30;99.90;;;;;;4960145;28;89991;-39
2022/04/27 02:58:36;;;;;;;17.70;11.35;;;3.40;99.90;;;;;;4960342;28;88946;-32
2022/04/27 03:01:02;;;;;;;14.70;12.35;;;3.40;99.90;;;;;;4960352;28;90089;-33
2022/04/27 03:03:27;;;;;;;13.15;11.85;;;3.40;99.90;;;;;;4960826;28;89404;-36
2022/04/27 03:05:53;;;;;;;16.20;12.02;;;3.50;99.90;;;;;;4959580;28;90322;-37
2022/04/27 03:08:18;;;;;;;14.73;11.55;;;3.50;99.90;;;;;;4960320;28;92650;-38
2022/04/27 03:10:46;;;;;;;15.77;11.50;;;3.50;99.90;;;;;;4960241;28;89575;-33
2022/04/27 03:13:12;;;;;;;14.27;10.67;;;3.50;99.90;;;;;;4960359;28;87772;-34
2022/04/27 03:15:37;;;;;;;14.13;11.52;;;3.50;99.90;;;;;;4942814;28;91207;-34
2022/04/27 03:18:19;;;;;;;14.38;10.70;;;3.50;99.90;;;;;;4959119;28;91311;-36
2022/04/27 03:20:47;;;;;;;18.33;11.65;;;3.60;99.90;;;;;;4960062;28;90545;-33
2022/04/27 03:23:13;;;;;;;17.50;12.43;;;3.70;99.90;;;;;;4960628;28;89057;-34
2022/04/27 03:25:39;;;;;;;17.42;11.43;;;3.70;99.90;;;;;;4959144;28;90279;-35
2022/04/27 03:28:04;;;;;;;17.50;11.68;;;3.70;99.90;;;;;;4960594;28;89807;-32
2022/04/27 03:30:30;;;;;;;19.58;12.45;;;3.70;99.90;;;;;;4959654;28;89699;-34
2022/04/27 03:32:56;;;;;;;13.38;11.98;;;3.80;99.90;;;;;;4959646;28;89357;-39
2022/04/27 03:35:21;;;;;;;12.32;10.00;;;3.80;99.90;;;;;;4959520;28;88524;-36
2022/04/27 03:37:47;;;;;;;15.45;10.73;;;3.80;99.90;;;;;;4959151;28;88180;-38
2022/04/27 03:40:12;;;;;;;15.95;10.45;;;3.80;99.90;;;;;;4960381;28;90807;-34
2022/04/27 03:42:38;;;;;;;17.13;10.68;;;3.80;99.90;;;;;;4958832;28;90087;-35
2022/04/27 03:45:04;;;;;;;22.52;11.95;;;3.90;99.90;;;;;;4960290;28;91490;-35
2022/04/27 03:47:29;;;;;;;14.68;11.93;;;3.90;99.90;;;;;;4959167;28;90390;-35
2022/04/27 03:49:59;;;;;;;15.30;10.18;;;4.00;99.90;;;;;;4959372;28;90172;-39
2022/04/27 03:52:25;;;;;;;16.55;10.45;;;4.00;99.90;;;;;;4959860;28;88476;-35
2022/04/27 03:54:51;;;;;;;12.77;9.73;;;4.00;99.90;;;;;;4959610;28;90149;-34
2022/04/27 03:57:16;;;;;;;12.02;10.25;;;4.00;99.90;;;;;;4960224;28;90152;-34
2022/04/27 03:59:42;;;;;;;16.98;9.73;;;4.10;99.90;;;;;;4959211;28;89849;-37
2022/04/27 04:02:07;;;;;;;11.90;10.45;;;4.10;99.90;;;;;;4960098;28;89284;-37
2022/04/27 04:04:33;;;;;;;16.77;10.30;;;4.10;99.90;;;;;;4959760;28;90136;-34
2022/04/27 04:06:58;;;;;;;16.00;10.50;;;4.10;99.90;;;;;;4958376;28;91771;-37
2022/04/27 04:09:24;;;;;;;12.50;10.10;;;4.20;99.90;;;;;;4959609;28;90624;-35
2022/04/27 04:11:49;;;;;;;12.13;10.93;;;4.10;99.90;;;;;;4959151;28;89432;-34
2022/04/27 04:14:15;;;;;;;11.55;10.32;;;4.10;99.90;;;;;;4959579;28;90447;-35
2022/04/27 04:16:41;;;;;;;16.60;9.90;;;4.20;99.90;;;;;;4959580;28;89793;-34
2022/04/27 04:19:06;;;;;;;16.30;10.40;;;4.20;99.90;;;;;;4959967;28;89458;-36
2022/04/27 04:21:32;;;;;;;11.82;10.75;;;4.30;99.90;;;;;;4959337;28;89161;-35
2022/04/27 04:23:57;;;;;;;18.45;11.93;;;4.30;99.90;;;;;;4959172;28;90366;-33
2022/04/27 04:29:07;;;;;;;14.43;11.50;;;4.40;99.90;;;;;;4958900;28;90605;-37
2022/04/27 04:31:33;;;;;;;17.90;11.60;;;4.50;99.90;;;;;;4957992;28;90037;-37
2022/04/27 04:33:58;;;;;;;15.38;12.20;;;4.50;99.90;;;;;;4958918;28;90218;-35
2022/04/27 04:36:24;;;;;;;16.27;11.68;;;4.60;99.90;;;;;;4958492;28;89743;-33
2022/04/27 04:38:49;;;;;;;14.63;12.52;;;4.70;99.90;;;;;;4959183;28;91824;-33
2022/04/27 04:41:15;;;;;;;16.83;12.60;;;4.70;99.90;;;;;;4958795;28;89652;-34
2022/04/27 04:43:40;;;;;;;15.45;11.88;;;4.60;99.90;;;;;;4959375;28;90283;-33
2022/04/27 04:46:06;;;;;;;21.10;12.93;;;4.70;99.90;;;;;;4959032;28;89546;-35
2022/04/27 04:48:31;;;;;;;15.73;12.30;;;4.80;99.90;;;;;;4959039;28;89957;-33
2022/04/27 04:50:57;;;;;;;20.00;12.95;;;4.90;99.90;;;;;;4959284;28;89841;-34
2022/04/27 04:53:22;;;;;;;14.73;13.25;;;4.90;99.90;;;;;;4958323;28;90160;-34
2022/04/27 04:55:48;;;;;;;15.32;13.45;;;5.00;99.90;;;;;;4958460;28;90538;-35
2022/04/27 04:58:14;;;;;;;22.13;14.38;;;5.10;99.90;;;;;;4958697;28;91529;-36
2022/04/27 05:00:39;;;;;;;15.95;13.77;;;5.10;99.90;;;;;;4959218;28;88358;-33
2022/04/27 05:03:05;;;;;;;20.45;15.45;;;5.20;99.90;;;;;;4958439;28;89824;-34
2022/04/27 05:05:31;;;;;;;16.80;14.80;;;5.30;99.90;;;;;;4958762;28;89733;-35
2022/04/27 05:07:56;;;;;;;15.43;12.55;;;5.30;99.90;;;;;;4959045;28;89322;-36
2022/04/27 05:10:22;;;;;;;20.73;12.48;;;5.40;99.90;;;;;;4958556;28;88617;-33
2022/04/27 05:12:47;;;;;;;16.83;13.02;;;5.40;99.90;;;;;;4958692;28;89220;-35
2022/04/27 05:15:13;;;;;;;15.73;13.73;;;5.40;99.90;;;;;;4958803;28;89818;-34
2022/04/27 05:17:39;;;;;;;16.17;12.77;;;5.50;99.90;;;;;;4958268;28;89928;-37
2022/04/27 05:20:07;;;;;;;19.92;14.07;;;5.50;99.90;;;;;;4958522;28;90455;-34
2022/04/27 05:22:34;;;;;;;17.95;13.38;;;5.50;99.90;;;;;;4958607;28;89963;-35
2022/04/27 05:25:02;;;;;;;15.00;11.95;;;5.60;99.90;;;;;;4958457;28;89819;-37
2022/04/27 05:27:27;;;;;;;17.88;13.25;;;5.60;99.90;;;;;;4958293;28;89743;-34
2022/04/27 05:32:44;;;;;;;20.30;13.10;;;5.70;99.90;;;;;;4958490;28;90850;-34
2022/04/27 05:35:10;;;;;;;18.80;14.20;;;5.80;99.90;;;;;;4957684;28;90116;-37
2022/04/27 05:37:36;;;;;;;15.63;13.13;;;5.80;99.90;;;;;;4958327;28;89945;-33
2022/04/27 05:40:03;;;;;;;22.27;14.43;;;5.80;99.90;;;;;;4958497;28;88941;-34
2022/04/27 05:42:29;;;;;;;20.88;15.10;;;5.80;99.90;;;;;;4957818;28;91419;-33
2022/04/27 05:44:55;;;;;;;23.88;16.50;;;5.90;99.90;;;;;;4958026;28;90615;-34
2022/04/27 05:47:23;;;;;;;22.42;15.55;;;6.00;99.90;;;;;;4958255;28;92335;-33
2022/04/27 05:49:50;;;;;;;20.77;15.90;;;6.00;99.90;;;;;;4960445;28;87669;-35
2022/04/27 05:52:16;;;;;;;16.50;14.48;;;6.00;99.90;;;;;;4961218;28;90225;-33
2022/04/27 05:54:42;;;;;;;19.08;13.88;;;6.00;99.90;;;;;;4961272;28;90389;-33
2022/04/27 05:57:07;;;;;;;19.23;14.95;;;6.10;99.90;;;;;;4961341;28;89337;-34
2022/04/27 05:59:33;;;;;;;19.17;16.25;;;6.20;99.90;;;;;;4962268;28;89153;-34
2022/04/27 06:01:59;;;;;;;17.10;14.93;;;6.20;99.90;;;;;;4961076;28;91551;-37
2022/04/27 06:04:26;;;;;;;17.25;14.65;;;6.30;99.90;;;;;;4959573;28;89840;-36
2022/04/27 06:06:52;;;;;;;17.77;15.88;;;6.30;99.90;;;;;;4961415;28;89569;-37
2022/04/27 06:09:18;;;;;;;19.23;14.55;;;6.40;99.90;;;;;;4960906;28;90601;-32
2022/04/27 06:11:44;;;;;;;21.25;14.93;;;6.40;99.90;;;;;;4961072;28;90700;-37
2022/04/27 06:14:09;;;;;;;17.45;14.95;;;6.50;99.90;;;;;;4960731;28;89769;-33
2022/04/27 06:16:35;;;;;;;19.30;15.27;;;6.50;99.90;;;;;;4960920;28;89178;-33
2022/04/27 06:19:01;;;;;;;15.27;13.75;;;6.50;99.90;;;;;;4961768;28;88371;-34
2022/04/27 06:21:31;;;;;;;17.80;14.48;;;6.60;99.90;;;;;;4961124;28;89124;-33
2022/04/27 06:23:59;;;;;;;20.08;14.13;;;6.60;99.90;;;;;;4978087;28;90939;-31
2022/04/27 06:26:25;;;;;;;20.35;14.70;;;6.70;99.90;;;;;;4979571;28;88208;-34
2022/04/27 06:28:51;;;;;;;14.32;12.93;;;6.70;99.90;;;;;;4979794;28;88814;-34
2022/04/27 06:31:18;;;;;;;19.35;12.55;;;6.70;99.90;;;;;;4980561;28;92135;-33
2022/04/27 06:33:43;;;;;;;24.48;14.18;;;6.80;99.90;;;;;;4979394;28;90640;-36
2022/04/27 06:36:09;;;;;;;21.45;13.98;;;6.90;99.90;;;;;;4980560;28;90541;-33
2022/04/27 06:38:34;;;;;;;15.05;12.52;;;6.90;99.90;;;;;;4979805;28;89524;-39
2022/04/27 06:41:01;;;;;;;14.25;11.98;;;6.90;99.90;;;;;;4980645;28;90472;-32
2022/04/27 06:43:27;;;;;;;16.63;13.30;;;7.00;99.90;;;;;;4980726;28;89504;-32
2022/04/27 06:45:52;;;;;;;19.25;12.70;;;7.10;99.90;;;;;;4980246;28;89462;-32
2022/04/27 06:48:18;;;;;;;21.73;12.32;;;7.10;99.90;;;;;;4980732;28;88130;-33
2022/04/27 06:50:43;;;;;;;16.48;12.55;;;7.20;99.90;;;;;;4980005;28;91916;-33
2022/04/27 06:53:09;;;;;;;21.52;11.98;;;7.20;99.90;;;;;;4980863;28;89593;-32
2022/04/27 06:55:35;;;;;;;12.77;11.48;;;7.30;99.90;;;;;;4979731;28;89668;-33
2022/04/27 06:58:00;;;;;;;14.75;11.60;;;7.40;99.90;;;;;;4980154;28;90579;-32
2022/04/27 07:00:26;;;;;;;14.88;12.05;;;7.40;99.90;;;;;;4978003;28;90184;-33
2022/04/27 07:02:52;;;;;;;19.85;11.65;;;7.50;99.90;;;;;;4978689;28;89572;-37
2022/04/27 07:05:20;;;;;;;11.45;10.30;;;7.50;99.90;;;;;;4980789;28;89808;-35
2022/04/27 07:07:46;;;;;;;17.30;10.98;;;7.60;99.90;;;;;;4969502;28;88822;-32
2022/04/27 07:10:12;;;;;;;15.70;11.52;;;7.70;99.90;;;;;;4939245;28;90453;-37
2022/04/27 07:12:38;;;;;;;16.67;10.90;;;7.70;99.90;;;;;;4978040;28;89927;-33
2022/04/27 07:15:05;;;;;;;14.50;10.80;;;7.70;99.90;;;;;;4959535;28;90282;-32
2022/04/27 07:17:30;;;;;;;14.23;10.65;;;7.80;99.90;;;;;;4978248;28;88502;-32
2022/04/27 07:19:57;;;;;;;13.38;9.98;;;7.80;99.90;;;;;;4978037;28;90154;-33
2022/04/27 07:22:22;;;;;;;12.93;11.18;;;7.90;99.90;;;;;;4976401;28;91387;-32
2022/04/27 07:24:49;;;;;;;14.82;9.93;;;7.90;99.90;;;;;;4978519;28;90231;-36
2022/04/27 07:27:15;;;;;;;18.88;10.38;;;8.00;99.90;;;;;;4978919;28;89488;-33
2022/04/27 07:29:41;;;;;;;11.52;9.90;;;8.10;99.90;;;;;;4977600;28;89120;-33
2022/04/27 07:32:07;;;;;;;19.25;10.05;;;8.30;99.90;;;;;;4978809;28;89497;-33
2022/04/27 07:34:32;;;;;;;14.27;11.02;;;8.40;99.90;;;;;;4976924;28;89266;-34
2022/04/27 07:36:58;;;;;;;10.43;8.43;;;8.30;99.90;;;;;;4977420;28;90522;-36
2022/04/27 07:39:24;;;;;;;15.02;9.93;;;8.50;99.90;;;;;;4978179;28;89609;-32
2022/04/27 07:41:50;;;;;;;12.00;10.52;;;8.60;99.90;;;;;;4977857;28;90165;-33
2022/04/27 07:44:16;;;;;;;9.48;8.52;;;8.60;99.90;;;;;;4977453;28;89204;-35
2022/04/27 07:46:47;;;;;;;13.13;11.00;;;8.60;99.90;;;;;;4977177;28;88939;-35
2022/04/27 07:49:13;;;;;;;14.55;10.82;;;8.70;99.90;;;;;;4977341;28;89997;-32
2022/04/27 07:51:39;;;;;;;14.85;10.25;;;8.70;99.90;;;;;;4977058;28;89880;-35
2022/04/27 07:54:04;;;;;;;15.48;10.55;;;8.70;99.90;;;;;;4977761;28;89953;-32
2022/04/27 07:56:30;;;;;;;10.80;8.02;;;8.80;99.90;;;;;;4977332;28;89109;-33
2022/04/27 07:58:56;;;;;;;17.70;9.30;;;8.80;99.90;;;;;;4977981;28;90578;-35
2022/04/27 08:01:21;;;;;;;12.20;7.00;;;9.00;99.90;;;;;;4977191;28;91274;-35
2022/04/27 08:03:47;;;;;;;10.98;6.75;;;9.00;99.90;;;;;;4978048;28;90640;-37
2022/04/27 08:06:12;;;;;;;8.40;6.90;;;9.20;99.90;;;;;;4978471;28;88791;-34
2022/04/27 08:08:38;;;;;;;7.40;6.53;;;9.30;99.90;;;;;;4976765;28;90184;-37
2022/04/27 08:11:04;;;;;;;11.00;7.90;;;9.20;99.90;;;;;;4976946;28;90423;-35
2022/04/27 08:13:31;;;;;;;11.95;7.75;;;9.40;99.90;;;;;;4976389;28;90435;-34
2022/04/27 08:15:57;;;;;;;9.40;6.82;;;9.50;99.90;;;;;;4978220;28;90228;-34
2022/04/27 08:18:22;;;;;;;12.13;8.20;;;9.50;99.90;;;;;;4977914;28;90186;-33
2022/04/27 08:23:34;;;;;;;9.20;6.18;;;9.60;99.90;;;;;;4977341;28;89736;-34
2022/04/27 08:26:01;;;;;;;8.32;7.28;;;9.60;99.90;;;;;;4978302;28;89612;-33
2022/04/27 08:28:27;;;;;;;13.25;6.55;;;9.50;99.90;;;;;;4978029;28;89565;-34
2022/04/27 08:30:54;;;;;;;8.05;6.80;;;9.60;99.90;;;;;;4977535;28;89475;-33
2022/04/27 08:33:20;;;;;;;7.32;6.35;;;9.80;99.90;;;;;;4976932;28;89489;-35
2022/04/27 08:35:47;;;;;;;10.40;6.43;;;10.00;99.90;;;;;;4976220;28;88636;-32
2022/04/27 08:38:13;;;;;;;10.63;6.60;;;10.20;99.90;;;;;;4977255;28;91129;-34
2022/04/27 08:40:44;;;;;;;8.60;5.68;;;10.00;99.90;;;;;;4977285;28;88435;-35
2022/04/27 08:43:11;;;;;;;6.68;5.90;;;10.00;99.90;;;;;;4958972;28;89657;-32
2022/04/27 08:45:43;;;;;;;6.90;6.22;;;10.30;99.90;;;;;;4976694;28;89248;-34
2022/04/27 08:48:10;;;;;;;8.10;6.15;;;10.40;99.90;;;;;;4976975;28;90297;-31
2022/04/27 08:50:37;;;;;;;15.13;7.07;;;10.20;99.90;;;;;;4959129;28;89792;-35
2022/04/27 08:53:04;;;;;;;7.30;6.60;;;10.50;99.90;;;;;;4977073;28;89545;-34
2022/04/27 08:55:29;;;;;;;7.60;6.00;;;10.40;99.90;;;;;;4977595;28;89557;-33
2022/04/27 08:58:12;;;;;;;9.43;5.95;;;10.50;99.90;;;;;;4976455;28;90382;-32
2022/04/27 09:00:38;;;;;;;5.82;5.10;;;10.70;99.90;;;;;;4976770;28;90096;-33
2022/04/27 09:03:21;;;;;;;7.88;5.25;;;10.60;99.90;;;;;;4976843;28;90628;-33
2022/04/27 09:05:58;;;;;;;7.65;5.30;;;10.60;99.90;;;;;;4977349;28;89491;-35
2022/04/27 09:08:25;;;;;;;8.67;5.20;;;10.80;99.90;;;;;;4976944;28;90243;-33
2022/04/27 09:11:20;;;;;;;6.00;4.07;;;10.90;99.90;;;;;;4976293;28;89552;-34
2022/04/27 09:13:52;;;;;;;7.45;3.45;;;11.10;99.90;;;;;;4976743;28;89505;-33
2022/04/27 09:16:21;;;;;;;4.03;3.70;;;11.00;89.40;;;;;;4977432;28;88643;-35
2022/04/27 09:21:57;;;;;;;4.43;3.70;;;10.90;97.10;;;;;;4976951;28;89832;-37
2022/04/27 09:24:23;;;;;;;5.40;4.00;;;10.80;92.60;;;;;;4978465;28;89727;-35
2022/04/27 09:27:24;;;;;;;5.47;3.70;;;10.80;99.90;;;;;;4980434;28;89527;-37
2022/04/27 09:30:07;;;;;;;7.53;3.85;;;10.80;97.00;;;;;;4946483;28;90269;-34
2022/04/27 09:32:34;;;;;;;4.53;3.28;;;10.70;95.30;;;;;;4978934;28;89870;-34
2022/04/27 09:35:02;;;;;;;4.45;3.60;;;10.60;99.90;;;;;;4977591;28;89683;-33
2022/04/27 09:37:30;;;;;;;3.42;3.13;;;10.70;99.90;;;;;;4979943;28;89258;-36
2022/04/27 09:40:09;;;;;;;6.70;3.80;;;10.80;95.50;;;;;;4979838;28;90758;-35
2022/04/27 09:42:46;;;;;;;;;;;10.70;84.70;;;;;;4980568;28;89781;-37
2022/04/27 09:45:20;;;;;;;6.15;3.47;;;10.60;92.30;;;;;;4981572;28;89791;-33
2022/04/27 09:47:58;;;;;;;6.25;4.07;;;10.70;99.90;;;;;;4979785;28;88130;-33
2022/04/27 09:50:23;;;;;;;3.78;3.47;;;10.80;99.90;;;;;;4979546;28;90434;-32
2022/04/27 09:52:49;;;;;;;3.83;3.53;;;10.70;91.20;;;;;;4979260;28;90861;-33
2022/04/27 09:55:15;;;;;;;13.13;3.38;;;10.70;99.90;;;;;;4979639;28;90416;-32
2022/04/27 09:57:42;;;;;;;3.47;3.17;;;10.90;99.90;;;;;;4979910;28;88093;-34
2022/04/27 10:00:11;;;;;;;6.05;3.15;;;10.90;96.20;;;;;;4979726;28;90105;-33
2022/04/27 10:02:40;;;;;;;7.80;3.78;;;10.90;89.40;;;;;;4978899;28;89539;-33
2022/04/27 10:05:07;;;;;;;5.28;3.45;;;11.00;87.20;;;;;;4979530;28;89581;-35
2022/04/27 10:07:34;;;;;;;6.85;3.67;;;10.80;92.70;;;;;;4979488;28;89383;-33
2022/04/27 10:10:00;;;;;;;3.90;3.50;;;10.70;90.90;;;;;;4979755;28;91095;-33
2022/04/27 10:12:25;;;;;;;4.80;4.03;;;10.90;99.90;;;;;;4979506;28;89599;-33
2022/04/27 10:14:51;;;;;;;3.50;3.20;;;11.10;99.90;;;;;;4978912;28;88653;-34
2022/04/27 10:17:17;;;;;;;6.97;3.80;;;11.10;96.70;;;;;;4979805;28;90366;-32
2022/04/27 10:19:44;;;;;;;7.38;3.90;;;11.20;97.80;;;;;;4978638;28;89911;-33
2022/04/27 10:22:28;;;;;;;3.78;3.35;;;11.30;92.30;;;;;;4979255;28;88452;-36
2022/04/27 10:24:55;;;;;;;3.75;3.45;;;11.30;88.30;;;;;;4978520;28;89748;-35
2022/04/27 10:27:41;;;;;;;9.30;3.97;;;11.30;92.80;;;;;;4978082;28;89584;-33
2022/04/27 10:30:10;;;;;;;3.60;3.30;;;11.30;87.00;;;;;;4979037;28;90504;-35
2022/04/27 10:32:35;;;;;;;;;;;11.50;79.90;;;;;;4978398;28;90097;-35
2022/04/27 10:35:30;;;;;;;3.70;3.35;;;11.20;84.50;;;;;;4971209;28;90650;-37
2022/04/27 10:37:58;;;;;;;6.53;3.63;;;11.50;79.00;;;;;;4975672;28;89369;-35
2022/04/27 10:40:35;;;;;;;4.70;3.08;;;11.70;93.40;;;;;;4979677;28;91557;-34
2022/04/27 10:43:40;;;;;;;6.07;4.07;;;11.90;88.50;;;;;;4978485;28;90610;-35
2022/04/27 10:46:39;;;;;;;5.53;3.67;;;11.50;72.40;;;;;;4978798;28;91086;-33
2022/04/27 10:49:23;;;;;;;4.68;3.10;;;11.50;75.50;;;;;;4979237;28;90053;-34
2022/04/27 10:52:03;;;;;;;4.05;3.75;;;11.80;92.40;;;;;;4978128;28;89198;-32
2022/04/27 10:54:31;;;;;;;4.63;3.17;;;11.80;90.20;;;;;;4978416;28;90346;-35
2022/04/27 10:57:15;;;;;;;6.90;3.92;;;12.00;87.80;;;;;;4960039;28;89814;-35
2022/04/27 11:00:05;;;;;;;8.80;3.78;;;11.90;93.90;;;;;;4978650;28;90354;-33
2022/04/27 11:02:44;;;;;;;3.45;3.13;;;11.60;65.20;;;;;;4979252;28;90459;-35
2022/04/27 11:05:13;;;;;;;5.25;3.22;;;11.90;78.70;;;;;;4978870;28;89825;-35
2022/04/27 11:07:52;;;;;;;4.55;4.18;;;12.80;75.30;;;;;;4978279;28;89470;-37
2022/04/27 11:10:21;;;;;;;7.15;3.28;;;13.30;69.60;;;;;;4978168;28;90329;-36
2022/04/27 11:12:51;;;;;;;5.32;3.15;;;13.20;66.30;;;;;;4976736;28;88273;-35
2022/04/27 11:15:25;;;;;;;5.65;3.45;;;13.10;67.70;;;;;;4978693;28;89921;-36
2022/04/27 11:18:01;;;;;;;4.28;3.05;;;12.50;65.60;;;;;;4978220;28;89056;-34
2022/04/27 11:20:39;;;;;;;4.28;3.10;;;12.30;66.50;;;;;;4978148;28;87563;-37
2022/04/27 11:23:20;;;;;;;7.43;3.58;;;12.10;68.10;;;;;;4978384;28;90059;-31
2022/04/27 11:25:51;;;;;;;3.63;3.28;;;12.10;73.10;;;;;;4963425;28;90263;-35
2022/04/27 11:28:17;;;;;;;11.93;4.03;;;12.30;68.50;;;;;;4938739;28;89760;-32
2022/04/27 11:30:43;;;;;;;6.35;3.33;;;12.10;66.70;;;;;;4921457;28;90270;-33
2022/04/27 11:33:10;;;;;;;4.88;3.17;;;12.20;71.10;;;;;;4938639;28;89893;-35
2022/04/27 11:35:44;;;;;;;6.47;3.00;;;12.20;65.90;;;;;;4937098;28;91281;-34
2022/04/27 11:38:15;;;;;;;4.50;2.95;;;12.40;66.20;;;;;;4938640;28;90529;-32
2022/04/27 11:40:41;;;;;;;3.60;3.30;;;12.70;66.60;;;;;;4939389;28;90198;-33
2022/04/27 11:43:06;;;;;;;8.07;3.30;;;12.60;63.40;;;;;;4938440;28;90411;-34
2022/04/27 11:45:32;;;;;;;4.00;3.65;;;12.90;67.60;;;;;;4938839;28;89212;-34
2022/04/27 11:48:04;;;;;;;5.75;3.70;;;12.90;66.30;;;;;;4938730;28;89666;-34
2022/04/27 11:50:31;;;;;;;3.80;3.08;;;12.80;64.80;;;;;;4939259;28;89136;-33
2022/04/27 11:53:05;;;;;;;3.67;3.17;;;12.90;66.90;;;;;;4939095;28;90502;-34
2022/04/27 11:55:32;;;;;;;6.47;3.47;;;13.10;68.00;;;;;;4938104;28;89414;-37
2022/04/27 11:57:58;;;;;;;7.20;2.92;;;12.60;61.80;;;;;;4938702;28;90206;-32
2022/04/27 12:00:27;;;;;;;5.72;3.85;;;12.80;66.90;;;;;;4937822;28;89369;-34
2022/04/27 12:02:53;;;;;;;;;;;12.70;65.70;;;;;;4938505;28;89676;-32
2022/04/27 12:05:36;;;;;;;6.05;3.92;;;12.70;63.70;;;;;;4939299;28;89862;-36
2022/04/27 12:08:07;;;;;;;10.82;3.95;;;12.60;65.70;;;;;;4938379;28;89430;-34
2022/04/27 12:10:42;;;;;;;3.70;3.40;;;12.70;67.90;;;;;;4938195;28;89525;-33
2022/04/27 12:13:09;;;;;;;4.03;3.63;;;13.00;74.90;;;;;;4937880;28;90042;-32
2022/04/27 12:15:39;;;;;;;3.95;3.58;;;12.70;67.60;;;;;;4938114;28;89817;-34
2022/04/27 12:18:05;;;;;;;5.53;3.95;;;12.80;64.90;;;;;;4938553;28;89402;-36
2022/04/27 12:20:40;;;;;;;3.30;3.05;;;12.80;66.30;;;;;;4938036;28;88977;-35
2022/04/27 12:23:17;;;;;;;5.82;3.70;;;13.00;70.50;;;;;;4937766;28;90117;-32
2022/04/27 12:25:55;;;;;;;7.85;3.58;;;13.00;71.80;;;;;;4937595;28;90802;-35
2022/04/27 12:28:23;;;;;;;7.18;3.20;;;13.20;68.80;;;;;;4938234;28;90123;-31
2022/04/27 12:30:55;;;;;;;8.33;4.10;;;13.40;65.40;;;;;;4938083;28;89368;-34
2022/04/27 12:33:32;;;;;;;4.80;3.20;;;13.40;68.80;;;;;;4937955;28;90187;-36
2022/04/27 12:39:07;;;;;;;7.70;3.63;;;14.00;78.00;;;;;;4977098;28;88970;-36
2022/04/27 12:41:44;;;;;;;5.50;4.07;;;13.70;64.80;;;;;;4976934;28;88131;-34
2022/04/27 12:44:35;;;;;;;5.85;3.95;;;13.30;70.20;;;;;;4976571;28;90989;-36
2022/04/27 12:47:07;;;;;;;5.95;3.85;;;13.40;73.20;;;;;;4976475;28;89838;-34
2022/04/27 12:49:38;;;;;;;5.32;4.32;;;13.30;70.00;;;;;;4977094;28;89535;-33
2022/04/27 12:52:34;;;;;;;5.95;3.97;;;13.30;73.10;;;;;;4976955;28;90665;-34
2022/04/27 12:55:08;;;;;;;7.15;3.92;;;13.10;67.50;;;;;;4977316;28;90439;-35
2022/04/27 12:57:44;;;;;;;7.80;5.13;;;13.40;78.20;;;;;;4977110;28;90346;-33
2022/04/27 13:00:11;;;;;;;9.30;3.97;;;13.00;72.60;;;;;;4977701;28;89285;-36
2022/04/27 13:02:37;;;;;;;5.18;4.43;;;12.90;80.20;;;;;;4959538;28;90358;-35
2022/04/27 13:05:03;;;;;;;4.97;4.05;;;12.70;78.50;;;;;;4960357;28;90569;-34
2022/04/27 13:07:29;;;;;;;6.90;4.38;;;12.80;84.40;;;;;;4960881;28;89620;-34
2022/04/27 13:12:39;;;;;;;8.38;4.38;;;13.00;88.90;;;;;;4999018;28;87702;-38
2022/04/27 13:15:07;;;;;;;10.38;4.13;;;12.70;91.70;;;;;;4999695;28;90099;-36